createdAt,value
2023-05-13T00:01:22.192Z,11.08
2023-05-13T00:03:50.577Z,11.15
2023-05-13T00:06:19.420Z,11.17
2023-05-13T00:08:47.772Z,11.35
2023-05-13T00:11:16.022Z,11.14
2023-05-13T00:13:44.189Z,11.08
2023-05-13T00:16:12.570Z,11.09
2023-05-13T00:18:41.584Z,11.10
2023-05-13T00:21:09.783Z,11.28
2023-05-13T00:23:37.050Z,11.18
2023-05-13T00:26:05.399Z,11.20
2023-05-13T00:28:33.535Z,11.12
2023-05-13T00:31:01.729Z,11.11
2023-05-13T00:33:29.896Z,10.95
2023-05-13T00:35:58.081Z,10.96
2023-05-13T00:38:25.434Z,10.90
2023-05-13T00:40:52.738Z,10.84
2023-05-13T00:43:19.991Z,10.85
2023-05-13T00:45:48.152Z,10.79
2023-05-13T00:48:16.598Z,10.71
2023-05-13T00:50:44.951Z,10.76
2023-05-13T00:53:13.431Z,10.61
2023-05-13T00:55:45.545Z,10.74
2023-05-13T00:58:14.011Z,10.74
2023-05-13T01:01:02.736Z,10.69
2023-05-13T01:04:01.078Z,10.67
2023-05-13T01:06:54.063Z,10.70
2023-05-13T01:09:49.653Z,10.71
2023-05-13T01:12:34.049Z,10.65
2023-05-13T01:15:21.736Z,10.76
2023-05-13T01:18:11.256Z,10.73
2023-05-13T01:20:43.901Z,10.65
2023-05-13T01:23:12.497Z,10.63
2023-05-13T01:25:41.205Z,10.65
2023-05-13T01:28:10.450Z,10.63
2023-05-13T01:30:38.841Z,10.61
2023-05-13T01:33:07.717Z,10.72
2023-05-13T01:35:36.085Z,10.53
2023-05-13T01:38:05.021Z,10.48
2023-05-13T01:40:34.721Z,10.48
2023-05-13T01:43:02.566Z,10.47
2023-05-13T01:45:30.624Z,10.48
2023-05-13T01:47:58.906Z,10.45
2023-05-13T01:50:27.105Z,10.42
2023-05-13T01:52:55.268Z,10.37
2023-05-13T01:55:23.494Z,10.41
2023-05-13T01:57:50.813Z,10.35
2023-05-13T02:00:19.329Z,10.31
2023-05-13T02:02:47.928Z,10.40
2023-05-13T02:05:17.069Z,10.27
2023-05-13T02:07:45.149Z,10.35
2023-05-13T02:10:13.391Z,10.30
2023-05-13T02:12:40.777Z,10.27
2023-05-13T02:15:09.702Z,10.31
2023-05-13T02:17:37.936Z,10.41
2023-05-13T02:20:07.397Z,10.31
2023-05-13T02:22:35.653Z,10.26
2023-05-13T02:25:05.175Z,10.38
2023-05-13T02:27:33.340Z,10.15
2023-05-13T02:30:01.526Z,10.23
2023-05-13T02:32:29.824Z,10.32
2023-05-13T02:34:57.172Z,10.16
2023-05-13T02:37:25.331Z,10.16
2023-05-13T02:39:53.780Z,10.23
2023-05-13T02:42:22.324Z,10.18
2023-05-13T02:44:50.518Z,10.21
2023-05-13T02:47:18.695Z,10.10
2023-05-13T02:49:46.906Z,10.18
2023-05-13T02:52:15.078Z,10.22
2023-05-13T02:54:43.342Z,10.24
2023-05-13T02:57:11.546Z,10.19
2023-05-13T02:59:39.713Z,10.10
2023-05-13T03:02:07.909Z,10.14
2023-05-13T03:04:36.213Z,10.18
2023-05-13T03:07:04.534Z,9.98
2023-05-13T03:09:35.198Z,9.93
2023-05-13T03:12:03.520Z,9.97
2023-05-13T03:14:31.965Z,10.07
2023-05-13T03:17:00.211Z,10.12
2023-05-13T03:19:27.965Z,10.18
2023-05-13T03:21:55.313Z,10.01
2023-05-13T03:24:23.482Z,10.13
2023-05-13T03:26:51.665Z,10.23
2023-05-13T03:29:19.902Z,10.09
2023-05-13T03:31:50.057Z,10.10
2023-05-13T03:34:18.300Z,10.14
2023-05-13T03:36:46.483Z,10.14
2023-05-13T03:39:13.776Z,10.18
2023-05-13T03:41:41.195Z,10.23
2023-05-13T03:44:09.440Z,10.16
2023-05-13T03:46:37.743Z,10.08
2023-05-13T03:49:06.151Z,10.23
2023-05-13T03:51:34.552Z,10.08
2023-05-13T03:54:02.755Z,10.17
2023-05-13T03:56:31.022Z,10.16
2023-05-13T03:58:59.264Z,10.12
2023-05-13T04:01:26.575Z,10.10
2023-05-13T04:03:54.780Z,10.28
2023-05-13T04:06:23.026Z,10.24
2023-05-13T04:08:52.146Z,10.27
2023-05-13T04:11:20.318Z,10.10
2023-05-13T04:13:48.534Z,10.41
2023-05-13T04:16:17.583Z,10.51
2023-05-13T04:18:46.630Z,10.47
2023-05-13T04:21:14.824Z,10.28
2023-05-13T04:23:43.002Z,10.55
2023-05-13T04:26:11.697Z,10.49
2023-05-13T04:28:39.850Z,10.56
2023-05-13T04:31:08.107Z,10.30
2023-05-13T04:33:36.259Z,10.40
2023-05-13T04:36:04.921Z,10.47
2023-05-13T04:38:33.204Z,10.30
2023-05-13T04:41:01.321Z,10.45
2023-05-13T04:43:29.710Z,10.48
2023-05-13T04:45:57.898Z,10.44
2023-05-13T04:48:28.185Z,10.48
2023-05-13T04:50:58.555Z,10.53
2023-05-13T04:53:27.301Z,10.51
2023-05-13T04:56:00.979Z,10.49
2023-05-13T04:58:29.125Z,10.37
2023-05-13T05:00:57.691Z,10.40
2023-05-13T05:03:25.337Z,10.40
2023-05-13T05:05:53.592Z,10.49
2023-05-13T05:08:21.816Z,10.39
2023-05-13T05:10:50.016Z,10.38
2023-05-13T05:13:18.370Z,10.43
2023-05-13T05:15:46.660Z,10.38
2023-05-13T05:18:14.902Z,10.32
2023-05-13T05:20:43.899Z,10.39
2023-05-13T05:23:12.084Z,10.35
2023-05-13T05:25:40.296Z,10.37
2023-05-13T05:28:09.533Z,10.39
2023-05-13T05:30:40.186Z,10.31
2023-05-13T05:33:09.170Z,10.37
2023-05-13T05:35:38.595Z,10.38
2023-05-13T05:38:09.152Z,10.36
2023-05-13T05:40:41.898Z,10.43
2023-05-13T05:43:13.181Z,10.55
2023-05-13T05:45:41.491Z,10.51
2023-05-13T05:48:08.888Z,10.49
2023-05-13T05:50:37.209Z,10.53
2023-05-13T05:53:07.266Z,10.49
2023-05-13T05:55:36.116Z,10.52
2023-05-13T05:58:05.801Z,10.49
2023-05-13T06:00:33.967Z,10.51
2023-05-13T06:03:02.391Z,10.60
2023-05-13T06:05:30.765Z,10.67
2023-05-13T06:07:58.923Z,10.63
2023-05-13T06:10:27.100Z,10.72
2023-05-13T06:12:55.288Z,10.69
2023-05-13T06:15:24.750Z,10.84
2023-05-13T06:17:53.820Z,10.84
2023-05-13T06:20:23.486Z,10.96
2023-05-13T06:22:52.869Z,11.02
2023-05-13T06:25:21.912Z,10.97
2023-05-13T06:27:50.418Z,11.00
2023-05-13T06:30:18.997Z,10.85
2023-05-13T06:33:00.113Z,10.86
2023-05-13T06:35:30.620Z,10.85
2023-05-13T06:37:58.852Z,10.80
2023-05-13T06:40:27.135Z,10.97
2023-05-13T06:42:56.171Z,11.05
2023-05-13T06:45:26.055Z,11.14
2023-05-13T06:47:55.160Z,11.10
2023-05-13T06:50:24.424Z,11.14
2023-05-13T06:52:52.758Z,11.06
2023-05-13T06:55:21.926Z,10.98
2023-05-13T06:57:51.703Z,11.18
2023-05-13T07:00:21.158Z,11.19
2023-05-13T07:02:49.522Z,11.13
2023-05-13T07:05:17.950Z,11.21
2023-05-13T07:07:46.242Z,11.19
2023-05-13T07:10:15.326Z,11.05
2023-05-13T07:12:44.418Z,10.94
2023-05-13T07:15:12.616Z,10.95
2023-05-13T07:17:41.679Z,11.05
2023-05-13T07:20:10.401Z,10.97
2023-05-13T07:22:38.593Z,10.81
2023-05-13T07:25:07.400Z,10.73
2023-05-13T07:27:36.360Z,10.63
2023-05-13T07:30:05.157Z,10.72
2023-05-13T07:32:36.156Z,10.72
2023-05-13T07:35:06.149Z,10.77
2023-05-13T07:37:35.179Z,10.82
2023-05-13T07:40:06.748Z,10.80
2023-05-13T07:42:35.171Z,10.80
2023-05-13T07:45:05.155Z,10.85
2023-05-13T07:47:33.745Z,10.69
2023-05-13T07:50:02.282Z,10.80
2023-05-13T07:52:32.754Z,10.90
2023-05-13T07:55:01.812Z,11.02
2023-05-13T07:57:30.842Z,11.11
2023-05-13T07:59:59.236Z,11.11
2023-05-13T08:02:27.739Z,10.93
2023-05-13T08:04:56.001Z,10.84
2023-05-13T08:07:25.034Z,11.17
2023-05-13T08:09:53.151Z,11.04
2023-05-13T08:12:21.690Z,10.96
2023-05-13T08:14:50.248Z,11.17
2023-05-13T08:17:22.165Z,11.21
2023-05-13T08:19:50.305Z,11.24
2023-05-13T08:22:18.424Z,11.30
2023-05-13T08:24:46.607Z,11.40
2023-05-13T08:27:14.790Z,11.25
2023-05-13T08:29:43.028Z,11.58
2023-05-13T08:32:11.391Z,11.78
2023-05-13T08:34:40.328Z,11.81
2023-05-13T08:37:07.631Z,11.89
2023-05-13T08:39:36.042Z,12.05
2023-05-13T08:42:05.112Z,11.92
2023-05-13T08:44:33.094Z,11.79
2023-05-13T08:47:27.948Z,12.16
2023-05-13T08:49:56.875Z,12.03
2023-05-13T08:52:26.841Z,12.33
2023-05-13T08:54:59.471Z,12.29
2023-05-13T08:57:31.008Z,12.35
2023-05-13T08:59:58.258Z,12.30
2023-05-13T09:02:27.872Z,12.25
2023-05-13T09:05:03.191Z,12.63
2023-05-13T09:07:31.708Z,12.64
2023-05-13T09:10:00.832Z,12.60
2023-05-13T09:12:52.858Z,12.74
2023-05-13T09:15:24.816Z,12.74
2023-05-13T09:17:59.963Z,12.75
2023-05-13T09:20:28.818Z,13.25
2023-05-13T09:23:11.799Z,13.72
2023-05-13T09:25:41.084Z,13.37
2023-05-13T09:28:09.406Z,13.37
2023-05-13T09:30:41.081Z,13.20
2023-05-13T09:33:13.848Z,13.11
2023-05-13T09:35:53.871Z,13.15
2023-05-13T09:38:27.076Z,13.22
2023-05-13T09:40:57.751Z,13.30
2023-05-13T09:43:29.166Z,13.13
2023-05-13T09:46:05.373Z,13.45
2023-05-13T09:48:35.380Z,13.55
2023-05-13T09:51:03.716Z,13.66
2023-05-13T09:53:32.861Z,13.61
2023-05-13T09:56:01.931Z,14.01
2023-05-13T09:58:31.124Z,14.16
2023-05-13T10:00:59.966Z,14.23
2023-05-13T10:03:29.861Z,14.30
2023-05-13T10:06:03.089Z,14.19
2023-05-13T10:08:32.588Z,14.14
2023-05-13T10:11:01.094Z,13.79
2023-05-13T10:13:32.425Z,14.15
2023-05-13T10:16:01.735Z,14.62
2023-05-13T10:18:30.956Z,14.45
2023-05-13T10:20:59.280Z,14.46
2023-05-13T10:23:28.639Z,14.31
2023-05-13T10:25:59.320Z,14.19
2023-05-13T10:28:28.384Z,14.20
2023-05-13T10:30:57.397Z,14.23
2023-05-13T10:33:28.070Z,14.73
2023-05-13T10:36:22.229Z,14.79
2023-05-13T10:39:41.413Z,14.70
2023-05-13T10:42:41.295Z,14.03
2023-05-13T10:45:10.808Z,13.84
2023-05-13T10:47:39.265Z,14.02
2023-05-13T10:50:24.181Z,14.42
2023-05-13T10:52:58.391Z,14.56
2023-05-13T10:55:28.548Z,14.19
2023-05-13T10:58:08.486Z,13.96
2023-05-13T11:00:37.626Z,14.28
2023-05-13T11:03:13.885Z,14.54
2023-05-13T11:05:47.175Z,14.78
2023-05-13T11:08:39.243Z,14.93
2023-05-13T11:11:31.512Z,15.39
2023-05-13T11:14:19.857Z,15.64
2023-05-13T11:17:04.549Z,15.12
2023-05-13T11:19:38.311Z,14.59
2023-05-13T11:22:14.817Z,14.77
2023-05-13T11:24:46.772Z,14.77
2023-05-13T11:27:21.641Z,14.66
2023-05-13T11:29:52.980Z,15.04
2023-05-13T11:32:52.132Z,15.53
2023-05-13T11:35:32.330Z,15.47
2023-05-13T11:38:03.187Z,15.08
2023-05-13T11:40:34.129Z,14.93
2023-05-13T11:43:05.289Z,14.98
2023-05-13T11:45:34.267Z,14.75
2023-05-13T11:48:22.657Z,14.57
2023-05-13T11:50:54.326Z,14.77
2023-05-13T11:53:23.130Z,14.71
2023-05-13T11:55:51.925Z,14.81
2023-05-13T11:58:21.785Z,14.75
2023-05-13T12:00:49.994Z,15.05
2023-05-13T12:03:18.155Z,15.05
2023-05-13T12:05:47.918Z,15.24
2023-05-13T12:08:16.181Z,15.52
2023-05-13T12:10:46.087Z,15.25
2023-05-13T12:13:14.524Z,15.21
2023-05-13T12:15:43.875Z,15.29
2023-05-13T12:18:13.083Z,14.85
2023-05-13T12:20:41.440Z,15.26
2023-05-13T12:23:12.065Z,14.94
2023-05-13T12:25:48.473Z,15.30
2023-05-13T12:28:20.350Z,14.79
2023-05-13T12:31:01.193Z,14.79
2023-05-13T12:33:31.860Z,14.69
2023-05-13T12:36:35.923Z,14.85
2023-05-13T12:39:11.745Z,14.61
2023-05-13T12:41:43.994Z,14.70
2023-05-13T12:44:16.231Z,14.74
2023-05-13T12:47:11.878Z,14.68
2023-05-13T12:49:53.935Z,14.93
2023-05-13T12:52:22.358Z,14.91
2023-05-13T12:54:51.009Z,15.11
2023-05-13T12:57:20.710Z,15.03
2023-05-13T12:59:48.126Z,15.24
2023-05-13T13:02:17.132Z,15.42
2023-05-13T13:04:45.251Z,15.51
2023-05-13T13:07:14.780Z,16.08
2023-05-13T13:09:43.024Z,15.87
2023-05-13T13:12:11.151Z,15.81
2023-05-13T13:14:39.177Z,15.53
2023-05-13T13:17:07.491Z,15.23
2023-05-13T13:19:35.668Z,15.02
2023-05-13T13:22:04.220Z,14.94
2023-05-13T13:24:32.403Z,14.98
2023-05-13T13:26:59.786Z,14.79
2023-05-13T13:29:27.989Z,14.99
2023-05-13T13:31:55.307Z,14.99
2023-05-13T13:34:23.679Z,15.03
2023-05-13T13:36:51.942Z,14.98
2023-05-13T13:39:20.088Z,15.15
2023-05-13T13:41:47.507Z,14.79
2023-05-13T13:44:15.714Z,14.67
2023-05-13T13:46:43.930Z,14.59
2023-05-13T13:49:22.823Z,14.64
2023-05-13T13:51:53.411Z,14.58
2023-05-13T13:54:21.674Z,14.68
2023-05-13T13:56:49.921Z,14.61
2023-05-13T13:59:19.418Z,14.58
2023-05-13T14:01:47.644Z,14.39
2023-05-13T14:04:23.587Z,14.35
2023-05-13T14:06:51.954Z,14.40
2023-05-13T14:09:20.144Z,14.48
2023-05-13T14:11:48.265Z,14.47
2023-05-13T14:14:16.597Z,14.67
2023-05-13T14:16:43.934Z,14.72
2023-05-13T14:19:12.392Z,15.00
2023-05-13T14:21:40.690Z,15.03
2023-05-13T14:24:08.911Z,14.89
2023-05-13T14:26:37.045Z,14.98
2023-05-13T14:29:04.317Z,14.71
2023-05-13T14:31:32.444Z,14.73
2023-05-13T14:34:00.631Z,14.77
2023-05-13T14:36:27.950Z,14.71
2023-05-13T14:38:56.046Z,14.59
2023-05-13T14:41:25.718Z,14.69
2023-05-13T14:43:53.873Z,14.66
2023-05-13T14:46:22.285Z,14.79
2023-05-13T14:48:51.279Z,14.80
2023-05-13T14:51:18.531Z,14.73
2023-05-13T14:53:46.682Z,14.53
2023-05-13T14:56:14.929Z,14.59
2023-05-13T14:58:43.104Z,14.69
2023-05-13T15:01:11.647Z,14.49
2023-05-13T15:03:39.976Z,14.58
2023-05-13T15:06:08.387Z,14.56
2023-05-13T15:08:37.984Z,14.41
2023-05-13T15:11:06.472Z,14.38
2023-05-13T15:13:36.943Z,14.47
2023-05-13T15:16:07.234Z,14.53
2023-05-13T15:18:35.522Z,14.38
2023-05-13T15:21:05.654Z,14.53
2023-05-13T15:23:36.766Z,14.46
2023-05-13T15:26:05.065Z,14.56
2023-05-13T15:28:34.029Z,14.39
2023-05-13T15:31:02.176Z,14.37
2023-05-13T15:33:30.429Z,14.37
2023-05-13T15:35:59.519Z,14.34
2023-05-13T15:38:28.482Z,14.44
2023-05-13T15:40:56.731Z,14.39
2023-05-13T15:43:25.704Z,14.48
2023-05-13T15:45:53.878Z,14.53
2023-05-13T15:48:22.127Z,14.43
2023-05-13T15:50:50.494Z,14.46
2023-05-13T15:53:18.651Z,14.42
2023-05-13T15:55:47.679Z,14.42
2023-05-13T15:58:15.840Z,14.37
2023-05-13T16:00:43.991Z,14.34
2023-05-13T16:03:12.169Z,14.30
2023-05-13T16:05:41.268Z,14.25
2023-05-13T16:08:09.460Z,14.30
2023-05-13T16:10:38.324Z,14.26
2023-05-13T16:13:07.672Z,14.12
2023-05-13T16:15:35.870Z,14.14
2023-05-13T16:18:04.961Z,14.26
2023-05-13T16:20:33.334Z,14.20
2023-05-13T16:23:01.542Z,14.28
2023-05-13T16:25:29.747Z,14.27
2023-05-13T16:27:58.836Z,14.18
2023-05-13T16:30:27.674Z,14.34
2023-05-13T16:32:55.907Z,14.22
2023-05-13T16:35:24.479Z,14.17
2023-05-13T16:37:52.739Z,14.30
2023-05-13T16:40:21.122Z,14.27
2023-05-13T16:42:49.781Z,14.24
2023-05-13T16:45:18.960Z,14.18
2023-05-13T16:47:47.137Z,14.17
2023-05-13T16:50:15.545Z,14.14
2023-05-13T16:52:43.709Z,14.14
2023-05-13T16:55:11.815Z,14.22
2023-05-13T16:57:40.917Z,14.11
2023-05-13T17:00:10.717Z,14.01
2023-05-13T17:02:39.065Z,13.98
2023-05-13T17:05:07.188Z,13.87
2023-05-13T17:07:35.350Z,13.97
2023-05-13T17:10:04.896Z,13.99
2023-05-13T17:12:33.180Z,13.99
2023-05-13T17:15:01.327Z,13.87
2023-05-13T17:17:29.411Z,13.88
2023-05-13T17:19:57.805Z,13.97
2023-05-13T17:22:26.773Z,13.96
2023-05-13T17:24:54.959Z,13.87
2023-05-13T17:27:23.011Z,13.80
2023-05-13T17:29:51.169Z,13.94
2023-05-13T17:32:20.194Z,13.91
2023-05-13T17:34:48.552Z,13.75
2023-05-13T17:37:16.745Z,13.80
2023-05-13T17:39:45.729Z,13.78
2023-05-13T17:42:13.877Z,13.74
2023-05-13T17:44:42.826Z,13.79
2023-05-13T17:47:11.003Z,13.72
2023-05-13T17:49:39.963Z,13.68
2023-05-13T17:52:08.162Z,13.73
2023-05-13T17:54:37.338Z,13.60
2023-05-13T17:57:05.914Z,13.50
2023-05-13T17:59:34.882Z,13.59
2023-05-13T18:02:03.059Z,13.49
2023-05-13T18:04:31.207Z,13.43
2023-05-13T18:06:59.434Z,13.41
2023-05-13T18:09:27.704Z,13.36
2023-05-13T18:11:55.863Z,13.36
2023-05-13T18:14:24.123Z,13.29
2023-05-13T18:16:52.245Z,13.25
2023-05-13T18:19:20.362Z,13.22
2023-05-13T18:21:47.628Z,13.16
2023-05-13T18:24:15.937Z,13.17
2023-05-13T18:26:44.855Z,13.22
2023-05-13T18:29:12.954Z,13.12
2023-05-13T18:31:41.244Z,13.10
2023-05-13T18:34:09.560Z,13.08
2023-05-13T18:36:37.699Z,12.99
2023-05-13T18:39:06.876Z,12.95
2023-05-13T18:41:35.824Z,12.89
2023-05-13T18:44:04.879Z,12.84
2023-05-13T18:46:33.328Z,12.82
2023-05-13T18:49:04.230Z,12.91
2023-05-13T18:51:36.908Z,12.84
2023-05-13T18:54:05.535Z,12.91
2023-05-13T18:56:34.716Z,12.94
2023-05-13T18:59:02.949Z,12.98
2023-05-13T19:01:31.933Z,12.92
2023-05-13T19:04:00.284Z,12.88
2023-05-13T19:06:28.789Z,12.87
2023-05-13T19:08:56.975Z,12.94
2023-05-13T19:11:25.079Z,12.94
2023-05-13T19:13:53.283Z,12.94
2023-05-13T19:16:21.603Z,12.81
2023-05-13T19:18:49.116Z,12.86
2023-05-13T19:21:17.387Z,12.83
2023-05-13T19:23:45.754Z,12.86
2023-05-13T19:26:14.758Z,12.81
2023-05-13T19:28:44.222Z,12.80
2023-05-13T19:31:12.417Z,12.74
2023-05-13T19:33:40.626Z,12.69
2023-05-13T19:36:09.737Z,12.58
2023-05-13T19:38:37.927Z,12.53
2023-05-13T19:41:06.099Z,12.54
2023-05-13T19:43:34.232Z,12.49
2023-05-13T19:46:02.488Z,12.37
2023-05-13T19:48:31.010Z,12.43
2023-05-13T19:50:59.210Z,12.43
2023-05-13T19:53:27.496Z,12.40
2023-05-13T19:55:56.119Z,12.35
2023-05-13T19:58:23.405Z,12.33
2023-05-13T20:00:51.628Z,12.19
2023-05-13T20:03:19.880Z,12.21
2023-05-13T20:05:51.524Z,12.15
2023-05-13T20:08:20.827Z,12.11
2023-05-13T20:10:48.161Z,11.98
2023-05-13T20:13:16.401Z,12.03
2023-05-13T20:15:44.772Z,12.01
2023-05-13T20:18:13.094Z,12.03
2023-05-13T20:20:42.220Z,11.90
2023-05-13T20:23:11.172Z,11.84
2023-05-13T20:25:40.227Z,11.69
2023-05-13T20:28:08.442Z,11.77
2023-05-13T20:30:36.645Z,11.51
2023-05-13T20:33:04.885Z,11.39
2023-05-13T20:35:33.894Z,11.47
2023-05-13T20:38:02.078Z,11.22
2023-05-13T20:40:31.526Z,11.24
2023-05-13T20:43:01.525Z,11.18
2023-05-13T20:45:30.613Z,11.07
2023-05-13T20:47:59.600Z,10.79
2023-05-13T20:50:29.002Z,10.88
2023-05-13T20:52:58.046Z,11.16
2023-05-13T20:55:26.207Z,11.34
2023-05-13T20:57:55.316Z,11.26
2023-05-13T21:00:23.741Z,11.29
2023-05-13T21:02:53.326Z,11.36
2023-05-13T21:05:21.915Z,11.19
2023-05-13T21:07:51.305Z,10.90
2023-05-13T21:10:19.456Z,11.12
2023-05-13T21:12:48.297Z,11.15
2023-05-13T21:15:17.373Z,11.26
2023-05-13T21:17:46.579Z,11.29
2023-05-13T21:20:14.886Z,10.98
2023-05-13T21:22:43.925Z,10.80
2023-05-13T21:25:12.502Z,10.95
2023-05-13T21:27:41.551Z,11.07
2023-05-13T21:30:10.478Z,10.98
2023-05-13T21:32:38.790Z,11.19
2023-05-13T21:35:07.056Z,11.21
2023-05-13T21:37:36.112Z,11.27
2023-05-13T21:40:05.393Z,11.21
2023-05-13T21:42:33.663Z,11.13
2023-05-13T21:45:01.820Z,11.34
2023-05-13T21:47:30.936Z,11.13
2023-05-13T21:49:59.423Z,11.28
2023-05-13T21:52:27.696Z,11.26
2023-05-13T21:54:55.911Z,11.27
2023-05-13T21:57:24.938Z,11.28
2023-05-13T21:59:53.127Z,11.32
2023-05-13T22:02:22.224Z,11.24
2023-05-13T22:04:50.446Z,11.33
2023-05-13T22:07:18.628Z,11.34
2023-05-13T22:09:48.489Z,11.24
2023-05-13T22:12:18.493Z,11.28
2023-05-13T22:14:47.459Z,11.28
2023-05-13T22:17:15.918Z,11.17
2023-05-13T22:19:45.102Z,11.24
2023-05-13T22:22:13.334Z,11.28
2023-05-13T22:24:42.251Z,11.29
2023-05-13T22:27:10.512Z,11.26
2023-05-13T22:29:38.648Z,11.19
2023-05-13T22:32:07.038Z,11.22
2023-05-13T22:34:36.151Z,11.30
2023-05-13T22:37:04.377Z,11.22
2023-05-13T22:39:33.406Z,11.18
2023-05-13T22:42:01.575Z,11.23
2023-05-13T22:44:29.778Z,11.27
2023-05-13T22:46:57.998Z,11.21
2023-05-13T22:49:26.177Z,11.19
2023-05-13T22:51:55.414Z,11.16
2023-05-13T22:54:24.217Z,11.12
2023-05-13T22:56:53.165Z,10.97
2023-05-13T22:59:21.429Z,11.07
2023-05-13T23:01:49.578Z,11.00
2023-05-13T23:04:18.726Z,11.05
2023-05-13T23:06:46.920Z,11.01
2023-05-13T23:09:15.176Z,11.10
2023-05-13T23:11:44.165Z,11.03
2023-05-13T23:14:12.342Z,10.96
2023-05-13T23:16:41.503Z,10.96
2023-05-13T23:19:11.058Z,10.95
2023-05-13T23:21:40.038Z,10.94
2023-05-13T23:24:08.252Z,10.92
2023-05-13T23:26:37.230Z,10.88
2023-05-13T23:29:05.763Z,10.92
2023-05-13T23:31:33.966Z,10.81
2023-05-13T23:34:03.017Z,10.86
2023-05-13T23:36:31.428Z,10.95
2023-05-13T23:39:00.443Z,10.85
2023-05-13T23:41:28.940Z,10.88
2023-05-13T23:43:56.284Z,10.81
2023-05-13T23:46:25.278Z,10.86
2023-05-13T23:48:53.486Z,10.75
2023-05-13T23:51:22.433Z,10.91
2023-05-13T23:53:51.000Z,10.92
2023-05-13T23:56:19.143Z,10.94
2023-05-13T23:58:47.423Z,11.00
